createdAt,value
2023-03-02T00:01:10.802Z,9.40
2023-03-02T00:06:14.216Z,9.70
2023-03-02T00:11:18.758Z,9.52
2023-03-02T00:16:22.036Z,8.50
2023-03-02T00:21:25.739Z,9.00
2023-03-02T00:26:30.706Z,9.10
2023-03-02T00:31:34.706Z,8.23
2023-03-02T00:36:38.016Z,9.40
2023-03-02T00:41:42.539Z,8.90
2023-03-02T00:46:45.886Z,8.77
2023-03-02T00:51:49.021Z,9.18
2023-03-02T00:56:53.555Z,8.25
2023-03-02T01:01:59.022Z,9.43
2023-03-02T01:07:04.288Z,9.05
2023-03-02T01:12:11.312Z,8.43
2023-03-02T01:17:15.409Z,8.18
2023-03-02T01:22:18.963Z,9.00
2023-03-02T01:27:23.537Z,9.32
2023-03-02T01:32:26.790Z,8.90
2023-03-02T01:37:30.044Z,9.38
2023-03-02T01:42:39.958Z,9.45
2023-03-02T01:47:43.127Z,9.30
2023-03-02T01:52:46.357Z,8.90
2023-03-02T01:57:53.674Z,8.77
2023-03-02T02:03:09.006Z,8.90
2023-03-02T02:08:12.528Z,8.30
2023-03-02T02:13:17.034Z,8.52
2023-03-02T02:18:20.311Z,8.73
2023-03-02T02:23:28.949Z,9.10
2023-03-02T02:28:37.318Z,8.98
2023-03-02T02:33:43.719Z,9.07
2023-03-02T02:38:48.675Z,9.02
2023-03-02T02:43:53.441Z,9.25
2023-03-02T02:48:56.642Z,8.53
2023-03-02T02:54:01.540Z,8.35
2023-03-02T02:59:15.081Z,9.55
2023-03-02T03:04:21.678Z,8.55
2023-03-02T03:09:25.799Z,8.15
2023-03-02T03:14:35.492Z,8.80
2023-03-02T03:19:39.304Z,7.55
2023-03-02T03:24:44.362Z,8.93
2023-03-02T03:29:49.305Z,8.52
2023-03-02T03:34:52.479Z,8.63
2023-03-02T03:39:55.780Z,8.32
2023-03-02T03:45:01.356Z,9.00
2023-03-02T03:50:05.010Z,7.38
2023-03-02T03:55:08.964Z,7.75
2023-03-02T04:00:18.406Z,7.55
2023-03-02T04:05:21.660Z,6.93
2023-03-02T04:10:24.775Z,7.88
2023-03-02T04:15:29.415Z,8.13
2023-03-02T04:20:33.270Z,7.27
2023-03-02T04:25:36.401Z,7.70
2023-03-02T04:30:41.018Z,8.15
2023-03-02T04:35:44.230Z,7.90
2023-03-02T04:40:47.443Z,7.95
2023-03-02T04:45:51.983Z,7.53
2023-03-02T04:50:55.113Z,7.90
2023-03-02T04:55:58.395Z,8.32
2023-03-02T05:01:03.690Z,7.03
2023-03-02T05:06:07.248Z,7.43
2023-03-02T05:11:12.141Z,7.32
2023-03-02T05:16:16.729Z,8.10
2023-03-02T05:21:20.336Z,7.63
2023-03-02T05:26:23.700Z,8.50
2023-03-02T05:31:31.940Z,7.40
2023-03-02T05:36:35.592Z,6.28
2023-03-02T05:41:39.364Z,7.22
2023-03-02T05:46:44.036Z,6.80
2023-03-02T05:51:47.347Z,6.80
2023-03-02T05:56:50.598Z,7.32
2023-03-02T06:01:59.129Z,6.82
2023-03-02T06:07:02.516Z,7.55
2023-03-02T06:12:06.178Z,7.43
2023-03-02T06:17:11.227Z,6.55
2023-03-02T06:22:14.463Z,7.55
2023-03-02T06:27:18.148Z,6.45
2023-03-02T06:32:22.887Z,5.97
2023-03-02T06:37:26.179Z,5.63
2023-03-02T06:42:29.951Z,6.05
2023-03-02T06:47:34.935Z,6.03
2023-03-02T06:52:38.197Z,5.47
2023-03-02T06:57:41.533Z,5.97
2023-03-02T07:02:46.300Z,5.40
2023-03-02T07:07:49.526Z,5.80
2023-03-02T07:12:53.864Z,5.47
2023-03-02T07:17:58.548Z,5.30
2023-03-02T07:23:01.838Z,5.60
2023-03-02T07:28:05.534Z,6.00
2023-03-02T07:33:10.193Z,4.65
2023-03-02T07:38:13.417Z,5.10
2023-03-02T07:43:17.213Z,4.97
2023-03-02T07:48:23.394Z,4.38
2023-03-02T07:53:26.753Z,4.50
2023-03-02T07:58:30.089Z,4.25
2023-03-02T08:03:34.747Z,4.18
2023-03-02T08:08:38.502Z,3.90
2023-03-02T08:13:42.571Z,4.30
2023-03-02T08:18:47.190Z,3.80
2023-03-02T08:23:50.930Z,3.55
2023-03-02T08:28:54.244Z,3.10
2023-03-02T08:34:00.126Z,3.25
2023-03-02T08:39:03.398Z,3.40
2023-03-02T08:44:07.792Z,3.58
2023-03-02T08:49:12.460Z,4.10
2023-03-02T08:54:16.470Z,3.70
2023-03-02T08:59:20.400Z,3.83
2023-03-02T09:04:25.159Z,3.30
2023-03-02T09:14:31.540Z,3.05
2023-03-02T09:19:44.331Z,3.28
2023-03-02T09:24:47.994Z,3.03
2023-03-02T09:29:51.332Z,3.03
2023-03-02T09:34:56.036Z,2.90
2023-03-02T09:39:59.313Z,3.42
2023-03-02T09:45:16.492Z,3.65
2023-03-02T09:50:41.359Z,2.92
2023-03-02T09:55:47.459Z,2.37
2023-03-02T10:00:52.303Z,2.22
2023-03-02T10:05:57.552Z,2.30
2023-03-02T10:11:08.138Z,2.35
2023-03-02T10:16:20.680Z,2.50
2023-03-02T10:21:31.196Z,2.22
2023-03-02T10:26:40.642Z,2.90
2023-03-02T10:31:46.185Z,2.75
2023-03-02T10:36:50.748Z,3.05
2023-03-02T10:46:59.475Z,2.50
2023-03-02T10:52:06.374Z,2.70
2023-03-02T10:57:29.796Z,2.38
2023-03-02T11:02:36.333Z,2.30
2023-03-02T11:07:41.048Z,2.38
2023-03-02T11:12:47.898Z,2.58
2023-03-02T11:17:58.163Z,2.40
2023-03-02T11:23:15.392Z,2.30
2023-03-02T11:28:35.397Z,1.92
2023-03-02T11:33:44.404Z,2.00
2023-03-02T11:38:53.660Z,2.22
2023-03-02T11:44:00.279Z,2.05
2023-03-02T11:49:08.122Z,2.38
2023-03-02T11:54:30.759Z,2.05
2023-03-02T11:59:35.694Z,2.22
2023-03-02T12:04:40.306Z,1.90
2023-03-02T12:09:44.940Z,2.10
2023-03-02T12:14:48.099Z,1.75
2023-03-02T12:19:53.665Z,1.75
2023-03-02T12:25:08.645Z,1.80
2023-03-02T12:30:26.388Z,1.65
2023-03-02T12:35:32.945Z,1.63
2023-03-02T12:40:54.650Z,1.40
2023-03-02T12:46:36.905Z,1.50
2023-03-02T12:51:53.069Z,1.40
2023-03-02T12:57:09.163Z,1.45
2023-03-02T13:02:17.980Z,1.38
2023-03-02T13:07:24.486Z,1.23
2023-03-02T13:12:30.499Z,1.40
2023-03-02T13:17:34.358Z,1.05
2023-03-02T13:22:37.674Z,1.23
2023-03-02T13:27:53.909Z,1.40
2023-03-02T13:33:02.921Z,1.27
2023-03-02T13:38:14.956Z,1.63
2023-03-02T13:43:25.210Z,1.70
2023-03-02T13:48:29.282Z,1.60
2023-03-02T13:53:38.151Z,1.67
2023-03-02T13:58:42.766Z,1.80
2023-03-02T14:03:46.005Z,2.05
2023-03-02T14:08:50.238Z,2.03
2023-03-02T14:13:56.107Z,2.10
2023-03-02T14:18:59.272Z,2.03
2023-03-02T14:24:02.494Z,3.47
2023-03-02T14:29:16.385Z,2.50
2023-03-02T14:34:19.886Z,2.20
2023-03-02T14:39:26.549Z,2.43
2023-03-02T14:44:31.156Z,1.98
2023-03-02T14:49:34.337Z,2.08
2023-03-02T14:54:42.130Z,2.03
2023-03-02T14:59:46.703Z,2.20
2023-03-02T15:04:53.733Z,2.50
2023-03-02T15:09:59.040Z,2.70
2023-03-02T15:15:03.585Z,2.63
2023-03-02T15:20:08.006Z,2.47
2023-03-02T15:25:11.615Z,2.60
2023-03-02T15:30:16.489Z,2.30
2023-03-02T15:35:20.000Z,2.50
2023-03-02T15:40:23.136Z,2.70
2023-03-02T15:45:28.959Z,2.90
2023-03-02T15:50:32.088Z,2.58
2023-03-02T15:55:35.305Z,2.45
2023-03-02T16:00:40.059Z,3.13
2023-03-02T16:05:43.493Z,2.80
2023-03-02T16:10:57.373Z,2.70
2023-03-02T16:16:05.192Z,2.60
2023-03-02T16:21:13.313Z,3.10
2023-03-02T16:26:18.954Z,2.58
2023-03-02T16:31:26.565Z,2.65
2023-03-02T16:36:29.740Z,2.80
2023-03-02T16:41:33.016Z,2.92
2023-03-02T16:46:39.498Z,2.90
2023-03-02T16:51:43.853Z,2.70
2023-03-02T16:56:47.686Z,3.33
2023-03-02T17:01:52.417Z,3.13
2023-03-02T17:07:00.912Z,3.47
2023-03-02T17:12:04.872Z,3.50
2023-03-02T17:17:09.825Z,3.38
2023-03-02T17:22:12.967Z,3.75
2023-03-02T17:27:24.965Z,22.80
2023-03-02T17:32:30.493Z,17.80
2023-03-02T17:37:33.813Z,10.60
2023-03-02T17:42:39.071Z,8.45
2023-03-02T17:47:43.799Z,9.57
2023-03-02T17:52:47.218Z,15.20
2023-03-02T17:57:50.339Z,16.52
2023-03-02T18:02:55.029Z,9.38
2023-03-02T18:07:58.257Z,8.63
2023-03-02T18:13:01.460Z,10.30
2023-03-02T18:18:06.522Z,6.32
2023-03-02T18:28:12.571Z,6.40
2023-03-02T18:33:17.214Z,6.22
2023-03-02T18:38:20.463Z,6.40
2023-03-02T18:43:23.629Z,7.40
2023-03-02T18:48:28.291Z,7.45
2023-03-02T18:53:31.470Z,8.27
2023-03-02T18:58:34.731Z,8.38
2023-03-02T19:03:40.173Z,7.93
2023-03-02T19:08:43.395Z,7.63
2023-03-02T19:13:46.566Z,8.90
2023-03-02T19:18:51.331Z,9.57
2023-03-02T19:23:54.566Z,9.27
2023-03-02T19:28:57.752Z,9.88
2023-03-02T19:34:02.396Z,10.05
2023-03-02T19:39:05.614Z,10.32
2023-03-02T19:44:08.754Z,10.80
2023-03-02T19:49:13.300Z,10.45
2023-03-02T19:54:16.428Z,12.30
2023-03-02T19:59:19.668Z,11.82
2023-03-02T20:04:24.212Z,12.90
2023-03-02T20:09:27.972Z,13.33
2023-03-02T20:14:34.067Z,13.27
2023-03-02T20:19:38.899Z,13.73
2023-03-02T20:24:42.752Z,12.53
2023-03-02T20:29:46.008Z,18.30
2023-03-02T20:34:50.588Z,15.93
2023-03-02T20:39:54.378Z,14.47
2023-03-02T20:44:57.594Z,13.77
2023-03-02T20:50:02.802Z,12.38
2023-03-02T20:55:07.025Z,13.18
2023-03-02T21:00:15.297Z,15.57
2023-03-02T21:05:21.586Z,17.20
2023-03-02T21:10:28.085Z,17.95
2023-03-02T21:15:31.434Z,17.55
2023-03-02T21:20:37.183Z,17.42
2023-03-02T21:25:42.274Z,19.05
2023-03-02T21:35:53.041Z,20.23
2023-03-02T21:40:57.201Z,23.30
2023-03-02T21:46:01.434Z,24.13
2023-03-02T21:51:07.232Z,23.63
2023-03-02T21:56:12.009Z,21.55
2023-03-02T22:01:15.581Z,23.33
2023-03-02T22:06:22.021Z,20.95
2023-03-02T22:11:26.484Z,20.75
2023-03-02T22:16:34.296Z,19.73
2023-03-02T22:21:39.842Z,19.33
2023-03-02T22:26:45.296Z,20.55
2023-03-02T22:32:00.129Z,19.42
2023-03-02T22:37:13.242Z,20.10
2023-03-02T22:42:18.016Z,18.40
2023-03-02T22:47:22.238Z,20.23
2023-03-02T22:52:33.850Z,18.75
2023-03-02T22:57:37.812Z,18.48
2023-03-02T23:02:44.963Z,19.00
2023-03-02T23:07:49.776Z,19.52
2023-03-02T23:12:52.959Z,19.67
2023-03-02T23:17:58.978Z,19.45
2023-03-02T23:23:03.555Z,17.85
2023-03-02T23:28:06.959Z,19.43
2023-03-02T23:33:10.348Z,19.77
2023-03-02T23:38:14.952Z,20.02
2023-03-02T23:43:18.066Z,18.70
2023-03-02T23:48:21.454Z,17.30
2023-03-02T23:53:27.157Z,18.73
2023-03-02T23:58:30.364Z,17.40
